This is the latest recevied weather packets stored in our database for station/object DC1MAK-13. If no packets are shown the sender has not sent any weather packets the latest 10 day(s).
| Time | Temp. | Humidity | Pressure | Rain* | Wind** | Luminosity | Snow |
|---|---|---|---|---|---|---|---|
| 1787413118 | 23.33° C | 43% | 990.3 hPa | - | - | - | - |
| 1787412820 | 23.33° C | 40% | 990.3 hPa | - | - | - | - |
| 1787412814 | 23.33° C | 40% | 990.3 hPa | - | - | - | - |
| 1787412517 | 23.33° C | 41% | 990.3 hPa | - | - | - | - |
| 1787412213 | 24.44° C | 40% | 990.4 hPa | - | - | - | - |
| 1787412207 | 24.44° C | 40% | 990.4 hPa | - | - | - | - |
| 1787411904 | 23.89° C | 41% | 990.4 hPa | - | - | - | - |
| 1787411607 | 23.33° C | 44% | 990.3 hPa | - | - | - | - |
| 1787411601 | 23.33° C | 44% | 990.3 hPa | - | - | - | - |
| 1787411307 | 22.78° C | 45% | 990.3 hPa | - | - | - | - |
| 1787410999 | 21.67° C | 48% | 990.3 hPa | - | - | - | - |
| 1787410993 | 21.67° C | 48% | 990.3 hPa | - | - | - | - |
| 1787410696 | 21.67° C | 50% | 990.3 hPa | - | - | - | - |
| 1787410690 | 21.67° C | 50% | 990.3 hPa | - | - | - | - |
| 1787410393 | 21.11° C | 49% | 990.3 hPa | - | - | - | - |
| 1787409787 | 22.22° C | 47% | 990.3 hPa | - | - | - | - |
| 1787409487 | 21.11° C | 49% | 990.3 hPa | - | - | - | - |
| 1787409179 | 21.11° C | 50% | 990.3 hPa | - | - | - | - |
| 1787408875 | 21.11° C | 49% | 990.3 hPa | - | - | - | - |
| 1787408572 | 21.67° C | 48% | 990.3 hPa | - | - | - | - |
| 1787407967 | 20.56° C | 51% | 990.2 hPa | - | - | - | - |
| 1787407667 | 21.67° C | 50% | 990.2 hPa | - | - | - | - |
| 1787407358 | 21.67° C | 48% | 990.1 hPa | - | - | - | - |
| 1787407055 | 21.67° C | 48% | 990 hPa | - | - | - | - |
| 1787406751 | 21.11° C | 51% | 990 hPa | - | - | - | - |
* Rain since midnight (hover to see other rain measurements)
** Current wind speed in m/s (hover to see current wind gust speed)